x

Gulf Of Maine - 78 Nm East Of Portsmouth, Nh (44005) Wave Buoy

5:50 - Thu 18th Dec 2014 All times are EST. -5 hours from GMT.

  • Sig Wave height 5.2ft
  • Peak Period 7s
  • Average Period 5s
  • Wind
    20mph, 25mph gusts
  • Sea Temp 49°f
  • Air Temp 40°f
  • Sea Pressure 1002.1mb
  • Gulf Of Maine - 78 Nm East Of Portsmouth, Nh
  • Gulf Of Maine - 78 Nm East Of Portsmouth, Nh

More Historic Weather Station data

Upgrade to MSW Pro to gain access to the past 30 days of data for over 8000 Wavebouys and Weather Stations around the globe.

Join Pro

Comparision Forecast

View Surf forecast
   
jeu. 12/18 5:50 5ft 7s 5s 20 25 mph 1002.1mb 49f 40f
4:50 5.5ft 5s 5s 20 22 mph 1001.9mb 49f 40f
3:50  -   -   -  20 25 mph 1002.1mb 49f 41f
2:50 6ft 5s 5s 22 29 mph 1002mb 49f 41f
1:50  -   -   -  25 29 mph 1001.9mb 49f 41f
12:50 6.5ft 7s 5s 22 27 mph 1001.9mb 49f 41f
mer. 12/17 11:50  -   -   -  20
mph
- - 41f
10:50 8ft 6s 5s 20 22 mph 1001.9mb 49f 41f
9:50 8.5ft 6s 5s 27 31 mph 1001.4mb 49f 42f
8:50 8.5ft 6s 5s 29 34 mph 1000.6mb 49f 42f
7:50 8ft 9s 6s 31 38 mph 1000.1mb 49f 44f
5:50  -   -   -  9 11 mph 999.7mb 49f 48f
4:50 7ft 8s 6s 9 11 mph 999.9mb 49f 47f
3:50 7.5ft 8s 6s 9 11 mph 1000.3mb 49f 48f
2:50 7.5ft 8s 6s 7 9 mph 1000.6mb 49f 49f
1:50 7ft 8s 6s 13 16 mph 1001.2mb 49f 50f
12:50 7ft 7s 5s 20 25 mph 1001.8mb 49f 49f
11:50 7.5ft 6s 5s 22 31 mph 1003mb 49f 49f
10:50 6ft 6s 5s 27 34 mph 1004mb 49f 49f
9:50 5.5ft 6s 5s 22 29 mph 1005.7mb 49f 49f
8:50 5ft 6s 4s 25 29 mph 1006.8mb 49f 49f
7:50 4.5ft 5s 4s 22 29 mph 1007.4mb 49f 49f
6:50 4ft 5s 4s 20 27 mph 1008.4mb 49f 48f
5:50 3.5ft 4s 4s 22 25 mph 1009.2mb 49f 48f
4:50 3.5ft 5s 4s 22 25 mph 1010mb 49f 48f
3:50 3.5ft 5s 4s 20 22 mph 1011.4mb 49f 47f
2:50 3.5ft 4s 4s 18 22 mph 1012.7mb 49f 47f
1:50 3ft 5s 4s 16 20 mph 1013.6mb 49f 47f
12:50 3ft 4s 4s 13 18 mph 1014.2mb 49f 47f
mar. 12/16 11:50 2.5ft 10s 4s 13 16 mph 1015mb 49f 47f
10:50 2.5ft 9s 4s 13 16 mph 1015.6mb 49f 47f
9:50 2.5ft 9s 5s 13 16 mph 1016.1mb 49f 46f
8:50 2.5ft 9s 5s 9 11 mph 1016.6mb 49f 45f
7:50 2ft 9s 5s 7 11 mph 1017.2mb 49f 45f
6:50 2ft 10s 4s 4 7 mph 1017.8mb 49f 44f
5:50 2.5ft 10s 4s 7
mph
1018.2mb 49f 44f
4:50 2ft 10s 4s 16 20 mph 1018.2mb 49f 44f
3:50 2ft 10s 5s 16 18 mph 1018.2mb 49f 44f
2:50 1.6ft 11s 5s 11 16 mph 1018.4mb 49f 44f
1:50 2ft 10s 5s 9 11 mph 1018.8mb 49f 44f
12:50 2ft 10s 6s 7 11 mph 1019.5mb 49f 43f
11:50 2ft 10s 6s 9 13 mph 1020mb 49f 42f
10:50 2ft 10s 6s 9 13 mph 1020.9mb 49f 42f
9:50 2ft 9s 6s 7 9 mph 1021.7mb 49f 42f
8:50 2ft 10s 6s 9 11 mph 1021.8mb 49f 41f
7:50 2ft 9s 6s 4 9 mph 1021.4mb 49f 40f
6:50 2ft 10s 5s 4 9 mph 1020.8mb 48f 40f
5:50 1.6ft 11s 5s  -  2 mph 1021.3mb 48f 39f
4:50 1.6ft 11s 5s  -  2 mph 1021.1mb 48f 39f
3:50 1.6ft 11s 5s 2
mph
1021.1mb 48f 38f
2:50 2ft 10s 5s 4 7 mph 1021.2mb 48f 38f
1:50 2ft 11s 5s 2 7 mph 1021.5mb 48f 38f
12:50 2ft 11s 5s 7 9 mph 1021mb 48f 38f
lun. 12/15 11:50 2ft 11s 5s 4 9 mph 1021mb 48f 38f
10:50 2.5ft 11s 5s 4 7 mph 1021.3mb 48f 38f
9:50 2.5ft 11s 5s 9 11 mph 1021mb 48f 38f
8:50 2.5ft 11s 4s 7 11 mph 1020.6mb 48f 37f
7:50 2.5ft 9s 4s 9 16 mph 1020.5mb 48f 37f
6:50 2.5ft 10s 5s 13 16 mph 1019.8mb 48f 37f
5:50 3ft 5s 4s 7 11 mph 1018.9mb 48f 37f
4:50 3ft 5s 4s 11 13 mph 1018.6mb 49f 37f
3:50 3ft 5s 4s 11 16 mph 1018mb 49f 37f
2:50 3ft 5s 4s 11 18 mph 1017.3mb 49f 37f
1:50 3.5ft 5s 4s 16 18 mph 1016.6mb 49f 37f
12:50 3ft 4s 4s 13 18 mph 1016.2mb 49f 37f
11:50 3ft 4s 4s 16 18 mph 1016.2mb 49f 38f
10:50 3ft 4s 4s 13 18 mph 1015.9mb 48f 39f
9:50 3ft 4s 4s 13 16 mph 1015.7mb 48f 39f
8:50 3.5ft 4s 4s 16 18 mph 1014.8mb 48f 39f
7:50 3.5ft 4s 4s 18 20 mph 1014.1mb 48f 39f
6:50 3.5ft 4s 4s 16 20 mph 1013.4mb 48f 39f
5:50 3.5ft 4s 4s 16 20 mph 1012.6mb 48f 40f
4:50 3.5ft 5s 4s 18 20 mph 1011.8mb 48f 40f
3:50 3.5ft 4s 4s 16 18 mph 1011.3mb 48f 40f
2:50 3.5ft 4s 4s 20 22 mph 1011mb 48f 40f
1:50  -   -   -  18 20 mph 1010.9mb 48f 40f
12:50 3.5ft 4s 4s 18 20 mph 1010.5mb 49f 40f
dim. 12/14 11:50 3.5ft 4s 4s 16 20 mph 1010.6mb 49f 40f
10:50 4ft 4s 4s 18 22 mph 1010.5mb 49f 40f
9:50 3.5ft 4s 4s 18 22 mph 1010.3mb 49f 41f
8:50 3.5ft 5s 4s 18 22 mph 1009.8mb 49f 41f
7:50 4ft 4s 4s 20 25 mph 1009.6mb 49f 42f
6:50 4ft 5s 4s 18 22 mph 1009.1mb 49f 42f
5:50 4ft 5s 4s 18 22 mph 1008.6mb 49f 41f
4:50 4ft 4s 4s 18 22 mph 1008.1mb 49f 42f
3:50 3.5ft 5s 4s 16 20 mph 1007.6mb 49f 42f
2:50 3.5ft 5s 4s 16 20 mph 1007.3mb 49f 41f
1:50 3.5ft 4s 4s 13 18 mph 1007mb 49f 41f
12:50 3.5ft 4s 4s 16 18 mph 1006.8mb 49f 40f
11:50 3.5ft 5s 4s 16 18 mph 1006.8mb 49f 40f